Hauptseite
METAR-TAF:

METAR-TAF

Flughäfen :

Flughafen Valencia

Valencia, Spanien

Breite: 39-30N, Länge: 000-28W, Höhe: 69 m

Beobachtung

Neuester Wetterbericht von vor 15 Minuten, um 22:00 UTC
Wind 2 kt aus Nordwest
Temperatur 9°C
Luftfeuchtigkeit 93%
Luftdruck 1024 hPa
Sichtweite 10 km oder mehr
keine Wolken unter 1500 m und keine Kumulonimbus oder Gewitterwolken

METAR: LEVC 072200Z 31002KT CAVOK 09/08 Q1024 NOSIG

Zeit: 23:15 (22:15 UTC)

Prognose

Neuester Wetterbericht von vor 5 Stunden und 15 Minuten, um 17:00 UTC
Gültige Prognose vom 07 um 18 UTC bis 08 um 18 UTC
Wind 5 kt aus West
Sichtweite 10 km oder mehr
Leicht bewölkt in der Höhe von 2000 ft

TAF: LEVC 071700Z 0718/0818 26005KT 9999 FEW020 TX19/0813Z TN06/0806Z

Wetterbeobachtungen und Prognosen von mehr als 4000 Flughäfen (METAR und TAF Bericht).

Die verfügbaren Stationen werden durch gelbe und rote Markierungen auf der Karte dargestellt.

Führen Sie die Maus auf sie, um den Namen der Station zu sehen.

Darauf klicken, um die Beobachtung von Wetterbeobachtungen und Prognosen zu sehen.

Um die Karte zu ändern : klicken Sie auf den grünen Tasten mit einem schwarzen Kreuz Zum Vergrößern, auf den grünen Button mit einem Gedankenstrich zu verkleinern, oder auf die grünen Pfeile für benachbarte Karten.


METAR-TAF: